createdAt,value
2023-01-29T00:02:18.188Z,98554.56
2023-01-29T00:04:45.002Z,98559.94
2023-01-29T00:07:11.721Z,98548.75
2023-01-29T00:09:38.611Z,98548.81
2023-01-29T00:12:05.368Z,98548.63
2023-01-29T00:14:31.997Z,98552.25
2023-01-29T00:16:58.681Z,98559.75
2023-01-29T00:19:25.361Z,98554.50
2023-01-29T00:21:52.169Z,98552.00
2023-01-29T00:24:18.875Z,98556.25
2023-01-29T00:26:45.649Z,98552.44
2023-01-29T00:29:12.360Z,98554.56
2023-01-29T00:31:39.072Z,98544.84
2023-01-29T00:34:05.799Z,98550.22
2023-01-29T00:36:32.423Z,98559.19
2023-01-29T00:39:02.817Z,98560.78
2023-01-29T00:41:50.514Z,98559.56
2023-01-29T00:44:36.471Z,98565.69
2023-01-29T00:47:04.557Z,98560.59
2023-01-29T00:49:31.262Z,98560.69
2023-01-29T00:52:16.697Z,98551.50
2023-01-29T00:54:43.532Z,98555.47
2023-01-29T00:57:10.164Z,98558.47
2023-01-29T00:59:36.845Z,98558.28
2023-01-29T01:02:22.179Z,98561.91
2023-01-29T01:04:48.891Z,98568.00
2023-01-29T01:07:15.561Z,98565.69
2023-01-29T01:10:01.123Z,98564.94
2023-01-29T01:12:28.710Z,98560.50
2023-01-29T01:14:55.422Z,98565.41
2023-01-29T01:17:22.554Z,98566.34
2023-01-29T01:19:49.375Z,98561.25
2023-01-29T01:22:16.422Z,98564.22
2023-01-29T01:24:43.252Z,98565.13
2023-01-29T01:27:09.954Z,98564.50
2023-01-29T01:29:36.924Z,98560.41
2023-01-29T01:32:03.928Z,98568.13
2023-01-29T01:34:30.823Z,98567.56
2023-01-29T01:36:57.660Z,98564.31
2023-01-29T01:39:25.297Z,98561.72
2023-01-29T01:41:55.907Z,98564.50
2023-01-29T01:45:04.820Z,98558.19
2023-01-29T01:47:47.440Z,98559.19
2023-01-29T01:50:27.187Z,98563.84
2023-01-29T01:52:57.884Z,98560.59
2023-01-29T01:55:28.181Z,98563.84
2023-01-29T01:58:02.457Z,98558.28
2023-01-29T02:00:29.043Z,98553.34
2023-01-29T02:03:14.308Z,98556.31
2023-01-29T02:06:00.661Z,98563.84
2023-01-29T02:09:05.572Z,98555.47
2023-01-29T02:11:32.229Z,98551.50
2023-01-29T02:13:59.455Z,98562.53
2023-01-29T02:16:26.351Z,98561.22
2023-01-29T02:18:53.175Z,98550.41
2023-01-29T02:22:05.330Z,98558.81
2023-01-29T02:24:57.591Z,98550.13
2023-01-29T02:28:13.550Z,98557.63
2023-01-29T02:30:49.618Z,98551.31
2023-01-29T02:33:55.846Z,98562.72
2023-01-29T02:36:53.115Z,98561.41
2023-01-29T02:39:52.293Z,98566.69
2023-01-29T02:42:38.740Z,98570.94
2023-01-29T02:45:22.499Z,98571.22
2023-01-29T02:48:00.160Z,98581.34
2023-01-29T02:50:38.127Z,98579.84
2023-01-29T02:53:12.916Z,98579.38
2023-01-29T02:56:20.832Z,98572.44
2023-01-29T02:59:12.869Z,98573.66
2023-01-29T03:01:48.557Z,98584.03
2023-01-29T03:04:22.605Z,98584.66
2023-01-29T03:06:56.401Z,98586.78
2023-01-29T03:09:46.312Z,98593.72
2023-01-29T03:12:36.914Z,98586.81
2023-01-29T03:15:19.084Z,98586.78
2023-01-29T03:17:52.526Z,98585.50
2023-01-29T03:20:25.379Z,98584.84
2023-01-29T03:23:01.409Z,98586.97
2023-01-29T03:25:47.680Z,98583.00
2023-01-29T03:28:36.704Z,98582.28
2023-01-29T03:31:24.745Z,98581.34
2023-01-29T03:34:34.868Z,98582.66
2023-01-29T03:37:07.704Z,98576.53
2023-01-29T03:39:34.538Z,98583.22
2023-01-29T03:42:34.184Z,98577.34
2023-01-29T03:45:11.311Z,98574.22
2023-01-29T03:47:57.099Z,98575.66
2023-01-29T03:50:38.402Z,98570.47
2023-01-29T03:53:29.371Z,98563.88
2023-01-29T03:56:12.084Z,98553.31
2023-01-29T03:58:45.979Z,98563.22
2023-01-29T04:01:21.255Z,98560.34
2023-01-29T04:04:06.475Z,98543.78
2023-01-29T04:06:37.032Z,98540.63
2023-01-29T04:09:08.926Z,98546.66
2023-01-29T04:11:43.162Z,98544.81
2023-01-29T04:14:10.025Z,98548.13
2023-01-29T04:16:40.913Z,98545.09
2023-01-29T04:19:08.347Z,98542.22
2023-01-29T04:21:37.637Z,98540.75
2023-01-29T04:24:06.490Z,98538.53
2023-01-29T04:27:23.716Z,98536.22
2023-01-29T04:30:24.287Z,98530.06
2023-01-29T04:33:38.283Z,98530.22
2023-01-29T04:36:35.866Z,98536.19
2023-01-29T04:39:31.949Z,98532.84
2023-01-29T04:42:29.874Z,98534.25
2023-01-29T04:45:44.737Z,98531.38
2023-01-29T04:48:25.840Z,98532.56
2023-01-29T04:51:25.213Z,98542.31
2023-01-29T04:54:11.047Z,98540.75
2023-01-29T04:57:46.326Z,98543.22
2023-01-29T05:00:24.007Z,98543.59
2023-01-29T05:02:51.377Z,98548.03
2023-01-29T05:05:20.192Z,98554.53
2023-01-29T05:07:48.142Z,98552.31
2023-01-29T05:10:19.452Z,98550.06
2023-01-29T05:12:56.538Z,98548.69
2023-01-29T05:15:28.886Z,98555.63
2023-01-29T05:18:02.945Z,98551.91
2023-01-29T05:20:34.506Z,98561.47
2023-01-29T05:23:01.233Z,98562.22
2023-01-29T05:25:32.867Z,98553.16
2023-01-29T05:28:14.093Z,98552.41
2023-01-29T05:30:40.741Z,98563.09
2023-01-29T05:33:24.449Z,98554.00
2023-01-29T05:35:51.444Z,98552.63
2023-01-29T05:38:19.397Z,98550.03
2023-01-29T05:40:46.133Z,98547.63
2023-01-29T05:43:21.400Z,98541.59
2023-01-29T05:45:58.827Z,98548.81
2023-01-29T05:48:28.740Z,98549.13
2023-01-29T05:51:04.084Z,98547.63
2023-01-29T05:53:31.207Z,98548.19
2023-01-29T05:56:01.450Z,98557.19
2023-01-29T05:58:30.123Z,98542.72
2023-01-29T06:00:56.688Z,98535.31
2023-01-29T06:03:23.321Z,98538.25
2023-01-29T06:05:50.009Z,98547.59
2023-01-29T06:08:16.637Z,98557.16
2023-01-29T06:10:43.145Z,98551.97
2023-01-29T06:13:09.786Z,98545.69
2023-01-29T06:15:39.670Z,98539.75
2023-01-29T06:18:06.278Z,98537.03
2023-01-29T06:20:32.945Z,98545.19
2023-01-29T06:22:59.740Z,98539.25
2023-01-29T06:25:26.413Z,98545.50
2023-01-29T06:27:53.132Z,98541.41
2023-01-29T06:30:19.969Z,98539.28
2023-01-29T06:32:46.686Z,98549.19
2023-01-29T06:35:13.461Z,98548.19
2023-01-29T06:37:40.143Z,98552.00
2023-01-29T06:40:08.000Z,98557.91
2023-01-29T06:42:37.761Z,98563.72
2023-01-29T06:45:05.154Z,98562.97
2023-01-29T06:47:31.846Z,98556.28
2023-01-29T06:49:58.466Z,98553.44
2023-01-29T06:52:28.840Z,98562.41
2023-01-29T06:54:56.495Z,98556.84
2023-01-29T06:57:23.649Z,98552.81
2023-01-29T06:59:50.248Z,98550.41
2023-01-29T07:02:17.059Z,98558.78
2023-01-29T07:04:43.777Z,98566.56
2023-01-29T07:07:13.289Z,98556.66
2023-01-29T07:09:41.671Z,98557.03
2023-01-29T07:12:10.101Z,98555.84
2023-01-29T07:14:37.077Z,98544.19
2023-01-29T07:17:04.055Z,98557.00
2023-01-29T07:19:30.649Z,98564.56
2023-01-29T07:21:57.199Z,98562.63
2023-01-29T07:24:24.788Z,98554.50
2023-01-29T07:26:51.621Z,98554.75
2023-01-29T07:29:18.216Z,98562.25
2023-01-29T07:31:45.113Z,98558.94
2023-01-29T07:34:11.811Z,98560.50
2023-01-29T07:36:38.411Z,98564.09
2023-01-29T07:39:05.067Z,98557.38
2023-01-29T07:41:31.686Z,98566.72
2023-01-29T07:43:58.242Z,98562.44
2023-01-29T07:46:24.846Z,98561.16
2023-01-29T07:48:51.438Z,98558.56
2023-01-29T07:51:18.557Z,98553.94
2023-01-29T07:53:45.272Z,98546.97
2023-01-29T07:56:11.930Z,98548.09
2023-01-29T07:58:38.578Z,98546.31
2023-01-29T08:01:07.685Z,98544.00
2023-01-29T08:03:34.638Z,98550.69
2023-01-29T08:06:01.254Z,98544.19
2023-01-29T08:08:27.879Z,98541.69
2023-01-29T08:10:54.491Z,98546.50
2023-01-29T08:13:21.180Z,98549.94
2023-01-29T08:15:47.959Z,98547.53
2023-01-29T08:18:14.859Z,98555.13
2023-01-29T08:20:41.578Z,98560.31
2023-01-29T08:23:14.304Z,98559.94
2023-01-29T08:25:41.460Z,98562.44
2023-01-29T08:28:08.753Z,98562.16
2023-01-29T08:30:36.128Z,98573.91
2023-01-29T08:33:03.989Z,98574.00
2023-01-29T08:35:30.953Z,98569.56
2023-01-29T08:38:00.334Z,98587.34
2023-01-29T08:40:32.430Z,98581.16
2023-01-29T08:43:02.137Z,98586.97
2023-01-29T08:45:30.238Z,98589.63
2023-01-29T08:47:57.032Z,98596.94
2023-01-29T08:50:23.657Z,98607.66
2023-01-29T08:52:50.246Z,98606.69
2023-01-29T08:55:17.172Z,98621.97
2023-01-29T08:57:43.950Z,98624.16
2023-01-29T09:00:11.094Z,98629.31
2023-01-29T09:02:38.126Z,98625.75
2023-01-29T09:05:05.520Z,98629.41
2023-01-29T09:07:32.602Z,98631.72
2023-01-29T09:09:59.161Z,98628.31
2023-01-29T09:12:25.784Z,98633.09
2023-01-29T09:14:52.385Z,98635.41
2023-01-29T09:17:19.122Z,98646.69
2023-01-29T09:19:45.697Z,98641.78
2023-01-29T09:22:12.415Z,98646.97
2023-01-29T09:24:38.987Z,98639.78
2023-01-29T09:27:06.213Z,98644.13
2023-01-29T09:29:35.696Z,98647.00
2023-01-29T09:32:04.088Z,98637.44
2023-01-29T09:34:30.725Z,98646.50
2023-01-29T09:36:57.435Z,98649.91
2023-01-29T09:39:24.245Z,98649.06
2023-01-29T09:42:12.661Z,98660.94
2023-01-29T09:45:17.564Z,98654.16
2023-01-29T09:47:44.813Z,98650.09
2023-01-29T09:50:26.842Z,98649.41
2023-01-29T09:53:23.266Z,98637.81
2023-01-29T09:56:12.582Z,98641.50
2023-01-29T09:58:42.048Z,98642.66
2023-01-29T10:01:47.993Z,98652.63
2023-01-29T10:04:49.617Z,98645.50
2023-01-29T10:07:41.989Z,98646.16
2023-01-29T10:10:49.513Z,98643.59
2023-01-29T10:13:48.220Z,98641.97
2023-01-29T10:17:10.322Z,98640.22
2023-01-29T10:20:00.332Z,98642.34
2023-01-29T10:22:51.734Z,98647.91
2023-01-29T10:25:21.423Z,98656.09
2023-01-29T10:27:53.283Z,98655.63
2023-01-29T10:30:44.182Z,98661.38
2023-01-29T10:33:18.104Z,98664.38
2023-01-29T10:35:53.390Z,98656.72
2023-01-29T10:38:43.277Z,98647.84
2023-01-29T10:42:06.908Z,98650.06
2023-01-29T10:51:20.128Z,98644.22
2023-01-29T10:57:19.356Z,98633.34
2023-01-29T11:00:10.462Z,98623.19
2023-01-29T11:02:37.613Z,98625.50
2023-01-29T11:05:10.290Z,98622.03
2023-01-29T11:07:36.985Z,98621.28
2023-01-29T11:10:17.609Z,98615.16
2023-01-29T11:12:45.827Z,98611.91
2023-01-29T11:15:20.016Z,98606.50
2023-01-29T11:18:05.105Z,98589.63
2023-01-29T11:20:34.390Z,98578.94
2023-01-29T11:23:01.029Z,98582.94
2023-01-29T11:25:29.872Z,98572.09
2023-01-29T11:28:00.895Z,98568.38
2023-01-29T11:30:39.061Z,98564.84
2023-01-29T11:33:10.205Z,98569.75
2023-01-29T11:35:37.312Z,98554.22
2023-01-29T11:38:25.445Z,98555.56
2023-01-29T11:40:52.773Z,98551.00
2023-01-29T11:43:37.517Z,98555.66
2023-01-29T11:46:13.512Z,98552.94
2023-01-29T11:48:44.608Z,98545.03
2023-01-29T11:51:20.311Z,98539.38
2023-01-29T11:53:52.826Z,98534.13
2023-01-29T11:56:24.988Z,98536.63
2023-01-29T11:58:55.392Z,98527.38
2023-01-29T12:01:36.291Z,98522.97
2023-01-29T12:04:12.260Z,98519.00
2023-01-29T12:06:44.245Z,98515.19
2023-01-29T12:09:17.361Z,98516.94
2023-01-29T12:11:44.313Z,98516.59
2023-01-29T12:14:29.981Z,98506.84
2023-01-29T12:17:08.848Z,98507.94
2023-01-29T12:19:41.108Z,98503.88
2023-01-29T12:22:18.695Z,98496.94
2023-01-29T12:25:04.093Z,98498.38
2023-01-29T12:27:56.947Z,98494.53
2023-01-29T12:30:40.926Z,98485.59
2023-01-29T12:33:22.848Z,98487.50
2023-01-29T12:36:24.096Z,98486.97
2023-01-29T12:38:50.728Z,98477.84
2023-01-29T12:41:59.951Z,98466.59
2023-01-29T12:44:46.385Z,98473.94
2023-01-29T12:47:20.309Z,98455.69
2023-01-29T12:49:55.726Z,98451.72
2023-01-29T12:52:44.187Z,98451.31
2023-01-29T12:55:44.791Z,98445.53
2023-01-29T12:58:22.842Z,98449.91
2023-01-29T13:00:53.490Z,98442.63
2023-01-29T13:03:30.597Z,98437.25
2023-01-29T13:06:06.445Z,98435.19
2023-01-29T13:08:40.887Z,98431.19
2023-01-29T13:11:22.303Z,98423.09
2023-01-29T13:13:54.441Z,98414.88
2023-01-29T13:16:28.402Z,98417.97
2023-01-29T13:18:59.403Z,98420.31
2023-01-29T13:21:31.181Z,98421.09
2023-01-29T13:24:04.784Z,98410.97
2023-01-29T13:26:32.629Z,98409.19
2023-01-29T13:28:59.358Z,98412.19
2023-01-29T13:31:40.894Z,98412.44
2023-01-29T13:34:43.489Z,98407.22
2023-01-29T13:37:17.460Z,98402.44
2023-01-29T13:39:52.321Z,98413.63
2023-01-29T13:42:46.094Z,98413.31
2023-01-29T13:45:39.904Z,98409.41
2023-01-29T13:48:23.566Z,98418.91
2023-01-29T13:50:52.042Z,98415.13
2023-01-29T13:53:24.202Z,98420.91
2023-01-29T13:55:50.920Z,98422.94
2023-01-29T13:58:52.745Z,98414.38
2023-01-29T14:02:08.384Z,98416.34
2023-01-29T14:04:35.070Z,98417.75
2023-01-29T14:07:06.467Z,98417.31
2023-01-29T14:10:09.487Z,98411.34
2023-01-29T14:12:38.733Z,98419.03
2023-01-29T14:15:30.788Z,98407.31
2023-01-29T14:18:19.542Z,98407.56
2023-01-29T14:21:07.078Z,98403.38
2023-01-29T14:23:43.424Z,98405.03
2023-01-29T14:26:45.405Z,98398.44
2023-01-29T14:29:34.388Z,98401.34
2023-01-29T14:32:24.993Z,98387.63
2023-01-29T14:35:10.453Z,98389.22
2023-01-29T14:37:40.769Z,98386.38
2023-01-29T14:40:29.702Z,98386.09
2023-01-29T14:43:20.972Z,98380.13
2023-01-29T14:45:49.313Z,98377.09
2023-01-29T14:48:38.637Z,98370.97
2023-01-29T14:51:09.675Z,98373.91
2023-01-29T14:53:51.777Z,98372.66
2023-01-29T14:56:55.593Z,98377.63
2023-01-29T14:59:30.678Z,98369.84
2023-01-29T15:02:04.203Z,98372.06
2023-01-29T15:04:39.951Z,98364.38
2023-01-29T15:07:36.017Z,98370.06
2023-01-29T15:10:23.180Z,98380.00
2023-01-29T15:13:00.376Z,98381.13
2023-01-29T15:16:10.751Z,98380.13
2023-01-29T15:18:40.027Z,98380.53
2023-01-29T15:21:14.745Z,98383.84
2023-01-29T15:23:43.219Z,98384.97
2023-01-29T15:26:12.453Z,98379.28
2023-01-29T15:28:39.861Z,98377.13
2023-01-29T15:31:12.078Z,98373.88
2023-01-29T15:33:44.290Z,98381.97
2023-01-29T15:36:20.788Z,98388.16
2023-01-29T15:38:47.441Z,98391.06
2023-01-29T15:41:23.656Z,98392.88
2023-01-29T15:43:57.544Z,98388.50
2023-01-29T15:46:30.539Z,98384.19
2023-01-29T15:49:00.650Z,98387.44
2023-01-29T15:51:28.299Z,98392.31
2023-01-29T15:53:58.347Z,98393.22
2023-01-29T15:56:48.355Z,98390.13
2023-01-29T15:59:22.239Z,98394.44
2023-01-29T16:01:48.926Z,98390.19
2023-01-29T16:04:25.729Z,98388.84
2023-01-29T16:06:53.853Z,98400.06
2023-01-29T16:09:26.225Z,98397.13
2023-01-29T16:11:57.326Z,98394.22
2023-01-29T16:14:25.700Z,98396.50
2023-01-29T16:16:53.736Z,98402.50
2023-01-29T16:19:29.095Z,98401.97
2023-01-29T16:22:03.692Z,98405.25
2023-01-29T16:24:32.454Z,98410.22
2023-01-29T16:27:13.912Z,98405.31
2023-01-29T16:29:40.794Z,98401.28
2023-01-29T16:32:09.175Z,98400.78
2023-01-29T16:34:41.685Z,98411.09
2023-01-29T16:37:19.742Z,98407.47
2023-01-29T16:39:48.268Z,98407.41
2023-01-29T16:42:27.076Z,98417.13
2023-01-29T16:44:56.680Z,98420.38
2023-01-29T16:47:41.535Z,98418.75
2023-01-29T16:50:40.663Z,98417.63
2023-01-29T16:53:23.073Z,98417.75
2023-01-29T16:55:52.550Z,98433.69
2023-01-29T16:58:28.155Z,98422.47
2023-01-29T17:01:09.582Z,98420.03
2023-01-29T17:03:37.398Z,98432.53
2023-01-29T17:06:12.597Z,98436.38
2023-01-29T17:08:42.842Z,98444.72
2023-01-29T17:11:11.292Z,98434.97
2023-01-29T17:13:43.373Z,98434.09
2023-01-29T17:16:31.992Z,98435.56
2023-01-29T17:18:59.929Z,98435.31
2023-01-29T17:21:28.358Z,98441.84
2023-01-29T17:23:55.069Z,98431.75
2023-01-29T17:26:23.019Z,98425.81
2023-01-29T17:28:51.489Z,98416.19
2023-01-29T17:31:18.318Z,98428.44
2023-01-29T17:33:45.928Z,98426.56
2023-01-29T17:36:15.907Z,98424.81
2023-01-29T17:38:42.991Z,98426.56
2023-01-29T17:41:23.589Z,98417.00
2023-01-29T17:43:50.965Z,98422.47
2023-01-29T17:46:18.639Z,98417.09
2023-01-29T17:48:45.934Z,98417.09
2023-01-29T17:51:17.889Z,98411.69
2023-01-29T17:53:46.705Z,98410.75
2023-01-29T17:56:18.448Z,98409.00
2023-01-29T17:58:45.147Z,98409.75
2023-01-29T18:01:12.232Z,98406.56
2023-01-29T18:03:38.920Z,98404.25
2023-01-29T18:06:08.554Z,98405.97
2023-01-29T18:08:38.097Z,98406.06
2023-01-29T18:11:05.581Z,98396.75
2023-01-29T18:13:32.215Z,98402.56
2023-01-29T18:15:58.838Z,98401.75
2023-01-29T18:18:25.528Z,98405.63
2023-01-29T18:20:52.167Z,98396.34
2023-01-29T18:23:18.991Z,98400.53
2023-01-29T18:25:46.009Z,98397.81
2023-01-29T18:28:17.282Z,98397.97
2023-01-29T18:30:47.497Z,98400.41
2023-01-29T18:33:15.186Z,98392.53
2023-01-29T18:35:48.284Z,98386.13
2023-01-29T18:38:15.093Z,98389.69
2023-01-29T18:40:41.715Z,98390.19
2023-01-29T18:43:08.671Z,98385.25
2023-01-29T18:45:35.513Z,98384.53
2023-01-29T18:48:02.234Z,98390.63
2023-01-29T18:50:28.772Z,98389.16
2023-01-29T18:52:55.640Z,98388.09
2023-01-29T18:55:23.016Z,98386.34
2023-01-29T18:58:27.272Z,98397.03
2023-01-29T19:00:43.717Z,98394.34
2023-01-29T19:03:11.060Z,98386.03
2023-01-29T19:05:37.908Z,98384.59
2023-01-29T19:08:05.736Z,98381.38
2023-01-29T19:10:33.275Z,98385.69
2023-01-29T19:12:59.928Z,98385.88
2023-01-29T19:15:26.640Z,98391.19
2023-01-29T19:17:53.262Z,98389.72
2023-01-29T19:20:20.197Z,98396.84
2023-01-29T19:22:46.917Z,98390.50
2023-01-29T19:25:13.760Z,98390.50
2023-01-29T19:27:40.335Z,98392.66
2023-01-29T19:30:07.962Z,98384.19
2023-01-29T19:32:34.681Z,98378.56
2023-01-29T19:35:01.414Z,98381.03
2023-01-29T19:37:31.352Z,98368.97
2023-01-29T19:39:58.030Z,98369.13
2023-01-29T19:42:24.664Z,98371.13
2023-01-29T19:44:52.274Z,98361.25
2023-01-29T19:47:19.162Z,98356.69
2023-01-29T19:49:45.844Z,98352.13
2023-01-29T19:52:49.702Z,98356.34
2023-01-29T19:55:18.612Z,98353.31
2023-01-29T19:57:45.463Z,98345.50
2023-01-29T20:00:14.603Z,98344.69
2023-01-29T20:02:41.230Z,98348.84
2023-01-29T20:05:11.249Z,98346.22
2023-01-29T20:07:37.988Z,98345.09
2023-01-29T20:10:04.878Z,98341.75
2023-01-29T20:12:31.832Z,98349.88
2023-01-29T20:14:58.404Z,98346.50
2023-01-29T20:17:25.082Z,98358.81
2023-01-29T20:19:51.645Z,98349.88
2023-01-29T20:22:18.232Z,98352.84
2023-01-29T20:24:44.855Z,98356.63
2023-01-29T20:27:12.530Z,98355.88
2023-01-29T20:29:39.900Z,98350.22
2023-01-29T20:32:08.741Z,98356.81
2023-01-29T20:34:35.653Z,98361.81
2023-01-29T20:37:04.664Z,98356.91
2023-01-29T20:39:31.832Z,98353.19
2023-01-29T20:41:58.937Z,98353.59
2023-01-29T20:44:25.791Z,98358.03
2023-01-29T20:46:52.572Z,98350.03
2023-01-29T20:49:19.410Z,98354.00
2023-01-29T20:51:46.258Z,98351.91
2023-01-29T20:54:12.999Z,98347.53
2023-01-29T20:56:44.769Z,98343.56
2023-01-29T20:59:14.455Z,98347.47
2023-01-29T21:01:41.871Z,98339.31
2023-01-29T21:04:08.491Z,98331.53
2023-01-29T21:06:35.157Z,98328.91
2023-01-29T21:09:01.695Z,98333.41
2023-01-29T21:11:28.657Z,98338.94
2023-01-29T21:13:57.786Z,98333.41
2023-01-29T21:16:26.306Z,98342.41
2023-01-29T21:18:59.746Z,98332.13
2023-01-29T21:21:26.704Z,98336.78
2023-01-29T21:23:53.566Z,98332.63
2023-01-29T21:26:20.336Z,98340.78
2023-01-29T21:28:47.043Z,98340.69
2023-01-29T21:31:14.636Z,98333.66
2023-01-29T21:33:41.282Z,98337.16
2023-01-29T21:36:10.017Z,98330.38
2023-01-29T21:38:36.840Z,98333.94
2023-01-29T21:41:05.902Z,98328.38
2023-01-29T21:43:33.017Z,98328.53
2023-01-29T21:46:03.869Z,98323.34
2023-01-29T21:48:31.241Z,98319.72
2023-01-29T21:50:57.812Z,98319.53
2023-01-29T21:53:24.488Z,98316.25
2023-01-29T21:55:51.797Z,98321.72
2023-01-29T21:58:19.871Z,98315.53
2023-01-29T22:00:50.639Z,98322.53
2023-01-29T22:03:17.355Z,98313.94
2023-01-29T22:05:43.995Z,98314.78
2023-01-29T22:08:10.612Z,98310.56
2023-01-29T22:10:37.634Z,98312.69
2023-01-29T22:13:04.592Z,98312.50
2023-01-29T22:15:31.363Z,98308.59
2023-01-29T22:17:58.056Z,98309.09
2023-01-29T22:20:30.835Z,98302.56
2023-01-29T22:22:59.450Z,98300.69
2023-01-29T22:25:26.706Z,98293.25
2023-01-29T22:27:53.348Z,98295.44
2023-01-29T22:30:20.433Z,98290.06
2023-01-29T22:32:47.161Z,98290.06
2023-01-29T22:35:13.946Z,98278.16
2023-01-29T22:37:40.563Z,98275.53
2023-01-29T22:40:08.111Z,98272.44
2023-01-29T22:42:34.719Z,98271.31
2023-01-29T22:45:01.326Z,98272.34
2023-01-29T22:47:27.924Z,98264.59
2023-01-29T22:49:54.540Z,98260.59
2023-01-29T22:52:22.319Z,98262.38
2023-01-29T22:54:49.017Z,98261.44
2023-01-29T22:57:16.012Z,98255.00
2023-01-29T22:59:42.651Z,98254.66
2023-01-29T23:02:09.555Z,98252.97
2023-01-29T23:04:36.742Z,98249.84
2023-01-29T23:07:03.865Z,98257.47
2023-01-29T23:09:30.530Z,98248.94
2023-01-29T23:11:57.141Z,98251.81
2023-01-29T23:14:23.848Z,98246.84
2023-01-29T23:16:50.491Z,98245.72
2023-01-29T23:19:17.304Z,98244.25
2023-01-29T23:21:43.958Z,98245.47
2023-01-29T23:24:11.118Z,98242.56
2023-01-29T23:26:56.296Z,98245.06
2023-01-29T23:29:22.992Z,98245.81
2023-01-29T23:31:49.786Z,98242.03
2023-01-29T23:34:16.641Z,98241.56
2023-01-29T23:36:43.421Z,98237.75
2023-01-29T23:39:10.635Z,98230.47
2023-01-29T23:41:37.248Z,98236.72
2023-01-29T23:44:04.415Z,98234.56
2023-01-29T23:46:31.703Z,98223.09
2023-01-29T23:48:58.522Z,98222.06
2023-01-29T23:51:25.111Z,98223.28
2023-01-29T23:53:51.813Z,98226.50
2023-01-29T23:56:18.478Z,98220.59
2023-01-29T23:58:45.129Z,98215.75
